sensor_id;sensor_type;location;lat;lon;timestamp;P1;durP1;ratioP1;P2;durP2;ratioP2
46391;SDS011;32098;49.448;7.904;2022-08-19T00:01:43;25.80;;;20.60;;
46391;SDS011;32098;49.448;7.904;2022-08-19T00:04:20;25.05;;;20.98;;
46391;SDS011;32098;49.448;7.904;2022-08-19T00:06:49;23.45;;;20.05;;
46391;SDS011;32098;49.448;7.904;2022-08-19T00:09:17;25.25;;;20.17;;
46391;SDS011;32098;49.448;7.904;2022-08-19T00:11:45;23.10;;;20.60;;
46391;SDS011;32098;49.448;7.904;2022-08-19T00:14:12;23.50;;;20.05;;
46391;SDS011;32098;49.448;7.904;2022-08-19T00:16:42;26.42;;;21.05;;
46391;SDS011;32098;49.448;7.904;2022-08-19T00:19:10;24.40;;;19.77;;
46391;SDS011;32098;49.448;7.904;2022-08-19T00:21:37;25.70;;;19.92;;
46391;SDS011;32098;49.448;7.904;2022-08-19T00:24:06;24.40;;;19.98;;
46391;SDS011;32098;49.448;7.904;2022-08-19T00:26:34;23.80;;;20.42;;
46391;SDS011;32098;49.448;7.904;2022-08-19T00:29:01;24.38;;;19.42;;
46391;SDS011;32098;49.448;7.904;2022-08-19T00:31:27;22.45;;;19.30;;
46391;SDS011;32098;49.448;7.904;2022-08-19T00:33:54;21.45;;;19.10;;
46391;SDS011;32098;49.448;7.904;2022-08-19T00:36:20;22.52;;;20.02;;
46391;SDS011;32098;49.448;7.904;2022-08-19T00:38:47;22.55;;;20.02;;
46391;SDS011;32098;49.448;7.904;2022-08-19T00:41:14;23.42;;;19.60;;
46391;SDS011;32098;49.448;7.904;2022-08-19T00:43:42;22.70;;;19.48;;
46391;SDS011;32098;49.448;7.904;2022-08-19T00:46:09;22.60;;;19.85;;
46391;SDS011;32098;49.448;7.904;2022-08-19T00:48:35;21.40;;;19.17;;
46391;SDS011;32098;49.448;7.904;2022-08-19T00:51:03;23.10;;;19.83;;
46391;SDS011;32098;49.448;7.904;2022-08-19T00:53:31;23.77;;;19.65;;
46391;SDS011;32098;49.448;7.904;2022-08-19T00:56:00;23.13;;;20.05;;
46391;SDS011;32098;49.448;7.904;2022-08-19T00:58:29;24.73;;;21.10;;
46391;SDS011;32098;49.448;7.904;2022-08-19T01:00:58;23.38;;;20.77;;
46391;SDS011;32098;49.448;7.904;2022-08-19T01:03:26;23.33;;;19.38;;
46391;SDS011;32098;49.448;7.904;2022-08-19T01:05:53;22.75;;;19.38;;
46391;SDS011;32098;49.448;7.904;2022-08-19T01:08:21;24.25;;;20.60;;
46391;SDS011;32098;49.448;7.904;2022-08-19T01:10:49;22.58;;;20.17;;
46391;SDS011;32098;49.448;7.904;2022-08-19T01:13:18;23.88;;;21.02;;
46391;SDS011;32098;49.448;7.904;2022-08-19T01:15:50;23.02;;;19.25;;
46391;SDS011;32098;49.448;7.904;2022-08-19T01:18:23;25.33;;;21.77;;
46391;SDS011;32098;49.448;7.904;2022-08-19T01:20:54;27.40;;;22.05;;
46391;SDS011;32098;49.448;7.904;2022-08-19T01:23:24;24.42;;;21.23;;
46391;SDS011;32098;49.448;7.904;2022-08-19T01:26:12;26.10;;;21.42;;
46391;SDS011;32098;49.448;7.904;2022-08-19T01:28:41;24.95;;;21.20;;
46391;SDS011;32098;49.448;7.904;2022-08-19T01:31:13;26.02;;;21.38;;
46391;SDS011;32098;49.448;7.904;2022-08-19T01:33:54;24.20;;;20.48;;
46391;SDS011;32098;49.448;7.904;2022-08-19T01:36:29;24.85;;;20.67;;
46391;SDS011;32098;49.448;7.904;2022-08-19T01:39:03;23.85;;;21.23;;
46391;SDS011;32098;49.448;7.904;2022-08-19T01:41:32;27.33;;;21.75;;
46391;SDS011;32098;49.448;7.904;2022-08-19T01:43:58;27.75;;;22.25;;
46391;SDS011;32098;49.448;7.904;2022-08-19T01:46:44;25.38;;;21.40;;
46391;SDS011;32098;49.448;7.904;2022-08-19T01:49:13;27.25;;;21.27;;
46391;SDS011;32098;49.448;7.904;2022-08-19T01:51:41;25.40;;;21.42;;
46391;SDS011;32098;49.448;7.904;2022-08-19T01:54:08;25.77;;;21.58;;
46391;SDS011;32098;49.448;7.904;2022-08-19T01:56:35;25.50;;;20.88;;
46391;SDS011;32098;49.448;7.904;2022-08-19T01:59:08;28.65;;;21.17;;
46391;SDS011;32098;49.448;7.904;2022-08-19T02:01:39;24.83;;;20.92;;
46391;SDS011;32098;49.448;7.904;2022-08-19T02:04:06;24.75;;;20.77;;
46391;SDS011;32098;49.448;7.904;2022-08-19T02:06:34;25.83;;;21.45;;
46391;SDS011;32098;49.448;7.904;2022-08-19T02:09:01;25.38;;;21.38;;
46391;SDS011;32098;49.448;7.904;2022-08-19T02:11:29;27.30;;;21.55;;
46391;SDS011;32098;49.448;7.904;2022-08-19T02:13:57;24.20;;;21.27;;
46391;SDS011;32098;49.448;7.904;2022-08-19T02:16:25;26.52;;;21.13;;
46391;SDS011;32098;49.448;7.904;2022-08-19T02:18:52;24.15;;;20.77;;
46391;SDS011;32098;49.448;7.904;2022-08-19T02:21:20;23.55;;;20.17;;
46391;SDS011;32098;49.448;7.904;2022-08-19T02:23:48;25.50;;;20.35;;
46391;SDS011;32098;49.448;7.904;2022-08-19T02:26:16;26.10;;;21.00;;
46391;SDS011;32098;49.448;7.904;2022-08-19T02:28:44;24.48;;;21.83;;
46391;SDS011;32098;49.448;7.904;2022-08-19T02:31:13;26.98;;;21.00;;
46391;SDS011;32098;49.448;7.904;2022-08-19T02:33:43;25.67;;;21.83;;
46391;SDS011;32098;49.448;7.904;2022-08-19T02:36:11;28.10;;;22.80;;
46391;SDS011;32098;49.448;7.904;2022-08-19T02:38:41;26.58;;;22.30;;
46391;SDS011;32098;49.448;7.904;2022-08-19T02:41:13;25.58;;;21.50;;
46391;SDS011;32098;49.448;7.904;2022-08-19T02:43:42;27.10;;;22.88;;
46391;SDS011;32098;49.448;7.904;2022-08-19T02:49:23;23.80;;;21.15;;
46391;SDS011;32098;49.448;7.904;2022-08-19T02:51:49;24.27;;;21.35;;
46391;SDS011;32098;49.448;7.904;2022-08-19T02:54:16;25.67;;;21.20;;
46391;SDS011;32098;49.448;7.904;2022-08-19T02:56:42;26.63;;;21.92;;
46391;SDS011;32098;49.448;7.904;2022-08-19T02:59:10;23.80;;;20.35;;
46391;SDS011;32098;49.448;7.904;2022-08-19T03:01:39;24.63;;;20.52;;
46391;SDS011;32098;49.448;7.904;2022-08-19T03:04:08;24.65;;;21.02;;
46391;SDS011;32098;49.448;7.904;2022-08-19T03:06:37;24.60;;;21.50;;
46391;SDS011;32098;49.448;7.904;2022-08-19T03:09:04;26.30;;;21.23;;
46391;SDS011;32098;49.448;7.904;2022-08-19T03:11:31;24.55;;;20.73;;
46391;SDS011;32098;49.448;7.904;2022-08-19T03:13:59;25.90;;;21.83;;
46391;SDS011;32098;49.448;7.904;2022-08-19T03:16:27;25.90;;;22.02;;
46391;SDS011;32098;49.448;7.904;2022-08-19T03:18:59;24.95;;;21.95;;
46391;SDS011;32098;49.448;7.904;2022-08-19T03:21:28;26.02;;;21.20;;
46391;SDS011;32098;49.448;7.904;2022-08-19T03:23:58;24.48;;;20.88;;
46391;SDS011;32098;49.448;7.904;2022-08-19T03:26:27;26.17;;;21.05;;
46391;SDS011;32098;49.448;7.904;2022-08-19T03:28:55;23.90;;;20.30;;
46391;SDS011;32098;49.448;7.904;2022-08-19T03:31:24;24.73;;;21.95;;
46391;SDS011;32098;49.448;7.904;2022-08-19T03:34:16;25.25;;;21.33;;
46391;SDS011;32098;49.448;7.904;2022-08-19T03:36:46;25.38;;;20.95;;
46391;SDS011;32098;49.448;7.904;2022-08-19T03:39:14;22.50;;;20.08;;
46391;SDS011;32098;49.448;7.904;2022-08-19T03:41:42;25.05;;;21.77;;
46391;SDS011;32098;49.448;7.904;2022-08-19T03:44:14;23.58;;;21.08;;
46391;SDS011;32098;49.448;7.904;2022-08-19T03:46:45;24.88;;;20.63;;
46391;SDS011;32098;49.448;7.904;2022-08-19T03:49:16;23.13;;;20.67;;
46391;SDS011;32098;49.448;7.904;2022-08-19T03:51:45;22.63;;;20.17;;
46391;SDS011;32098;49.448;7.904;2022-08-19T03:54:14;27.80;;;21.58;;
46391;SDS011;32098;49.448;7.904;2022-08-19T03:56:44;24.30;;;20.45;;
46391;SDS011;32098;49.448;7.904;2022-08-19T03:59:13;27.60;;;21.65;;
46391;SDS011;32098;49.448;7.904;2022-08-19T04:01:42;23.98;;;20.13;;
46391;SDS011;32098;49.448;7.904;2022-08-19T04:04:09;25.92;;;20.90;;
46391;SDS011;32098;49.448;7.904;2022-08-19T04:06:37;24.35;;;21.40;;
46391;SDS011;32098;49.448;7.904;2022-08-19T04:09:06;25.45;;;20.95;;
46391;SDS011;32098;49.448;7.904;2022-08-19T04:11:36;25.58;;;21.77;;
46391;SDS011;32098;49.448;7.904;2022-08-19T04:14:11;28.10;;;22.63;;
46391;SDS011;32098;49.448;7.904;2022-08-19T04:16:40;26.38;;;22.13;;
46391;SDS011;32098;49.448;7.904;2022-08-19T04:19:06;26.08;;;22.73;;
46391;SDS011;32098;49.448;7.904;2022-08-19T04:21:33;29.90;;;22.95;;
46391;SDS011;32098;49.448;7.904;2022-08-19T04:24:00;28.20;;;22.65;;
46391;SDS011;32098;49.448;7.904;2022-08-19T04:26:30;29.05;;;23.30;;
46391;SDS011;32098;49.448;7.904;2022-08-19T04:29:01;25.83;;;22.90;;
46391;SDS011;32098;49.448;7.904;2022-08-19T04:31:39;26.88;;;23.02;;
46391;SDS011;32098;49.448;7.904;2022-08-19T04:34:08;25.67;;;22.83;;
46391;SDS011;32098;49.448;7.904;2022-08-19T04:36:37;24.65;;;22.00;;
46391;SDS011;32098;49.448;7.904;2022-08-19T04:39:08;24.67;;;21.65;;
46391;SDS011;32098;49.448;7.904;2022-08-19T04:41:36;26.10;;;22.42;;
46391;SDS011;32098;49.448;7.904;2022-08-19T04:44:21;28.58;;;23.95;;
46391;SDS011;32098;49.448;7.904;2022-08-19T04:46:48;26.25;;;22.35;;
46391;SDS011;32098;49.448;7.904;2022-08-19T04:49:18;25.90;;;23.10;;
46391;SDS011;32098;49.448;7.904;2022-08-19T04:51:48;25.80;;;21.75;;
46391;SDS011;32098;49.448;7.904;2022-08-19T04:54:17;28.73;;;22.45;;
46391;SDS011;32098;49.448;7.904;2022-08-19T04:57:03;26.45;;;22.77;;
46391;SDS011;32098;49.448;7.904;2022-08-19T04:59:32;24.63;;;21.05;;
46391;SDS011;32098;49.448;7.904;2022-08-19T05:01:59;26.42;;;22.98;;
46391;SDS011;32098;49.448;7.904;2022-08-19T05:04:26;30.25;;;23.98;;
46391;SDS011;32098;49.448;7.904;2022-08-19T05:06:52;28.65;;;23.08;;
46391;SDS011;32098;49.448;7.904;2022-08-19T05:09:26;27.98;;;23.00;;
46391;SDS011;32098;49.448;7.904;2022-08-19T05:12:13;27.10;;;22.52;;
46391;SDS011;32098;49.448;7.904;2022-08-19T05:14:40;26.70;;;23.20;;
46391;SDS011;32098;49.448;7.904;2022-08-19T05:17:06;28.17;;;22.23;;
46391;SDS011;32098;49.448;7.904;2022-08-19T05:19:52;26.13;;;22.35;;
46391;SDS011;32098;49.448;7.904;2022-08-19T05:22:38;26.38;;;22.80;;
46391;SDS011;32098;49.448;7.904;2022-08-19T05:25:05;23.77;;;21.15;;
46391;SDS011;32098;49.448;7.904;2022-08-19T05:27:45;24.70;;;21.50;;
46391;SDS011;32098;49.448;7.904;2022-08-19T05:30:12;24.10;;;21.60;;
46391;SDS011;32098;49.448;7.904;2022-08-19T05:32:39;26.17;;;23.38;;
46391;SDS011;32098;49.448;7.904;2022-08-19T05:35:06;25.45;;;21.65;;
46391;SDS011;32098;49.448;7.904;2022-08-19T05:37:33;24.45;;;21.95;;
46391;SDS011;32098;49.448;7.904;2022-08-19T05:39:59;23.92;;;21.23;;
46391;SDS011;32098;49.448;7.904;2022-08-19T05:42:26;23.45;;;20.95;;
46391;SDS011;32098;49.448;7.904;2022-08-19T05:44:53;24.83;;;22.17;;
46391;SDS011;32098;49.448;7.904;2022-08-19T05:47:19;24.30;;;21.80;;
46391;SDS011;32098;49.448;7.904;2022-08-19T05:49:47;27.02;;;21.48;;
46391;SDS011;32098;49.448;7.904;2022-08-19T05:52:16;23.20;;;20.80;;
46391;SDS011;32098;49.448;7.904;2022-08-19T05:54:44;24.05;;;21.45;;
46391;SDS011;32098;49.448;7.904;2022-08-19T05:57:17;23.98;;;21.50;;
46391;SDS011;32098;49.448;7.904;2022-08-19T05:59:44;23.25;;;20.85;;
46391;SDS011;32098;49.448;7.904;2022-08-19T06:02:23;23.42;;;20.80;;
46391;SDS011;32098;49.448;7.904;2022-08-19T06:04:49;22.77;;;20.38;;
46391;SDS011;32098;49.448;7.904;2022-08-19T06:07:16;22.98;;;20.55;;
46391;SDS011;32098;49.448;7.904;2022-08-19T06:09:43;23.08;;;20.50;;
46391;SDS011;32098;49.448;7.904;2022-08-19T06:12:29;22.80;;;20.45;;
46391;SDS011;32098;49.448;7.904;2022-08-19T06:15:05;22.90;;;20.40;;
46391;SDS011;32098;49.448;7.904;2022-08-19T06:17:34;23.08;;;19.45;;
46391;SDS011;32098;49.448;7.904;2022-08-19T06:20:05;21.40;;;19.20;;
46391;SDS011;32098;49.448;7.904;2022-08-19T06:22:37;20.88;;;18.77;;
46391;SDS011;32098;49.448;7.904;2022-08-19T06:25:05;21.75;;;18.25;;
46391;SDS011;32098;49.448;7.904;2022-08-19T06:27:32;19.83;;;17.17;;
46391;SDS011;32098;49.448;7.904;2022-08-19T06:29:59;19.25;;;17.17;;
46391;SDS011;32098;49.448;7.904;2022-08-19T06:32:26;18.42;;;16.42;;
46391;SDS011;32098;49.448;7.904;2022-08-19T06:34:52;17.38;;;15.68;;
46391;SDS011;32098;49.448;7.904;2022-08-19T06:37:19;17.50;;;15.50;;
46391;SDS011;32098;49.448;7.904;2022-08-19T06:39:48;17.77;;;15.95;;
46391;SDS011;32098;49.448;7.904;2022-08-19T06:42:15;16.25;;;14.52;;
46391;SDS011;32098;49.448;7.904;2022-08-19T06:44:47;16.83;;;15.05;;
46391;SDS011;32098;49.448;7.904;2022-08-19T06:47:19;16.55;;;14.82;;
46391;SDS011;32098;49.448;7.904;2022-08-19T06:49:52;15.85;;;14.15;;
46391;SDS011;32098;49.448;7.904;2022-08-19T06:52:26;15.63;;;13.88;;
46391;SDS011;32098;49.448;7.904;2022-08-19T06:54:53;15.88;;;14.27;;
46391;SDS011;32098;49.448;7.904;2022-08-19T06:57:25;14.43;;;12.95;;
46391;SDS011;32098;49.448;7.904;2022-08-19T06:59:52;14.35;;;12.88;;
46391;SDS011;32098;49.448;7.904;2022-08-19T07:02:19;14.35;;;12.85;;
46391;SDS011;32098;49.448;7.904;2022-08-19T07:04:46;14.27;;;12.93;;
46391;SDS011;32098;49.448;7.904;2022-08-19T07:07:17;14.13;;;12.63;;
46391;SDS011;32098;49.448;7.904;2022-08-19T07:09:46;16.17;;;12.35;;
46391;SDS011;32098;49.448;7.904;2022-08-19T07:12:27;13.05;;;11.75;;
46391;SDS011;32098;49.448;7.904;2022-08-19T07:14:57;14.60;;;12.82;;
46391;SDS011;32098;49.448;7.904;2022-08-19T07:17:24;14.90;;;13.50;;
46391;SDS011;32098;49.448;7.904;2022-08-19T07:19:51;12.10;;;10.90;;
46391;SDS011;32098;49.448;7.904;2022-08-19T07:22:20;11.50;;;10.40;;
46391;SDS011;32098;49.448;7.904;2022-08-19T07:24:50;15.45;;;13.88;;
46391;SDS011;32098;49.448;7.904;2022-08-19T07:27:18;12.75;;;11.30;;
46391;SDS011;32098;49.448;7.904;2022-08-19T07:29:51;15.95;;;13.00;;
46391;SDS011;32098;49.448;7.904;2022-08-19T07:32:22;13.20;;;11.75;;
46391;SDS011;32098;49.448;7.904;2022-08-19T07:34:50;16.60;;;13.52;;
46391;SDS011;32098;49.448;7.904;2022-08-19T07:37:17;12.13;;;10.75;;
46391;SDS011;32098;49.448;7.904;2022-08-19T07:39:44;14.05;;;12.60;;
46391;SDS011;32098;49.448;7.904;2022-08-19T07:42:10;15.80;;;11.00;;
46391;SDS011;32098;49.448;7.904;2022-08-19T07:44:39;13.23;;;10.80;;
46391;SDS011;32098;49.448;7.904;2022-08-19T07:47:07;13.80;;;12.40;;
46391;SDS011;32098;49.448;7.904;2022-08-19T07:49:53;13.57;;;12.18;;
46391;SDS011;32098;49.448;7.904;2022-08-19T07:52:20;14.73;;;11.98;;
46391;SDS011;32098;49.448;7.904;2022-08-19T07:54:46;18.38;;;14.95;;
46391;SDS011;32098;49.448;7.904;2022-08-19T07:57:13;14.10;;;12.50;;
46391;SDS011;32098;49.448;7.904;2022-08-19T07:59:39;17.73;;;15.90;;
46391;SDS011;32098;49.448;7.904;2022-08-19T08:02:06;21.15;;;18.67;;
46391;SDS011;32098;49.448;7.904;2022-08-19T08:04:34;20.52;;;18.42;;
46391;SDS011;32098;49.448;7.904;2022-08-19T08:07:19;20.10;;;18.08;;
46391;SDS011;32098;49.448;7.904;2022-08-19T08:10:11;20.10;;;17.67;;
46391;SDS011;32098;49.448;7.904;2022-08-19T08:12:46;17.88;;;15.95;;
46391;SDS011;32098;49.448;7.904;2022-08-19T08:15:34;16.85;;;15.05;;
46391;SDS011;32098;49.448;7.904;2022-08-19T08:18:07;17.50;;;14.52;;
46391;SDS011;32098;49.448;7.904;2022-08-19T08:20:34;23.17;;;19.40;;
46391;SDS011;32098;49.448;7.904;2022-08-19T08:23:01;19.25;;;17.02;;
46391;SDS011;32098;49.448;7.904;2022-08-19T08:25:46;16.42;;;14.35;;
46391;SDS011;32098;49.448;7.904;2022-08-19T08:28:15;15.23;;;13.57;;
46391;SDS011;32098;49.448;7.904;2022-08-19T08:30:43;18.60;;;16.70;;
46391;SDS011;32098;49.448;7.904;2022-08-19T08:33:17;14.15;;;12.85;;
46391;SDS011;32098;49.448;7.904;2022-08-19T08:35:59;18.67;;;15.80;;
46391;SDS011;32098;49.448;7.904;2022-08-19T08:38:35;16.98;;;14.38;;
46391;SDS011;32098;49.448;7.904;2022-08-19T08:41:13;14.57;;;11.68;;
46391;SDS011;32098;49.448;7.904;2022-08-19T08:43:49;15.55;;;12.50;;
46391;SDS011;32098;49.448;7.904;2022-08-19T08:51:37;9.55;;;8.68;;
46391;SDS011;32098;49.448;7.904;2022-08-19T08:54:12;12.68;;;11.43;;
46391;SDS011;32098;49.448;7.904;2022-08-19T08:56:41;13.05;;;11.60;;
46391;SDS011;32098;49.448;7.904;2022-08-19T08:59:21;11.63;;;10.27;;
46391;SDS011;32098;49.448;7.904;2022-08-19T09:01:53;13.30;;;11.85;;
46391;SDS011;32098;49.448;7.904;2022-08-19T09:04:20;13.32;;;10.15;;
46391;SDS011;32098;49.448;7.904;2022-08-19T09:06:55;10.93;;;9.90;;
46391;SDS011;32098;49.448;7.904;2022-08-19T09:13:28;10.07;;;8.25;;
46391;SDS011;32098;49.448;7.904;2022-08-19T09:16:10;10.15;;;9.15;;
46391;SDS011;32098;49.448;7.904;2022-08-19T09:18:50;12.40;;;10.30;;
46391;SDS011;32098;49.448;7.904;2022-08-19T09:21:20;10.30;;;8.30;;
46391;SDS011;32098;49.448;7.904;2022-08-19T09:23:55;9.98;;;9.07;;
46391;SDS011;32098;49.448;7.904;2022-08-19T09:26:25;11.55;;;10.40;;
46391;SDS011;32098;49.448;7.904;2022-08-19T09:29:13;10.40;;;9.30;;
46391;SDS011;32098;49.448;7.904;2022-08-19T09:31:39;10.52;;;9.52;;
46391;SDS011;32098;49.448;7.904;2022-08-19T09:34:06;10.27;;;8.18;;
46391;SDS011;32098;49.448;7.904;2022-08-19T09:36:46;9.63;;;7.90;;
46391;SDS011;32098;49.448;7.904;2022-08-19T09:39:13;9.02;;;8.25;;
46391;SDS011;32098;49.448;7.904;2022-08-19T09:41:41;11.00;;;9.98;;
46391;SDS011;32098;49.448;7.904;2022-08-19T09:44:12;11.93;;;10.77;;
46391;SDS011;32098;49.448;7.904;2022-08-19T09:46:39;9.38;;;8.48;;
46391;SDS011;32098;49.448;7.904;2022-08-19T09:49:05;13.25;;;10.98;;
46391;SDS011;32098;49.448;7.904;2022-08-19T09:51:33;10.70;;;9.60;;
46391;SDS011;32098;49.448;7.904;2022-08-19T09:54:03;9.45;;;8.65;;
46391;SDS011;32098;49.448;7.904;2022-08-19T09:56:31;15.23;;;10.23;;
46391;SDS011;32098;49.448;7.904;2022-08-19T09:58:59;13.23;;;11.82;;
46391;SDS011;32098;49.448;7.904;2022-08-19T10:01:28;13.68;;;12.20;;
46391;SDS011;32098;49.448;7.904;2022-08-19T10:03:56;14.20;;;12.80;;
46391;SDS011;32098;49.448;7.904;2022-08-19T10:06:26;12.50;;;11.40;;
46391;SDS011;32098;49.448;7.904;2022-08-19T10:09:11;14.93;;;13.52;;
46391;SDS011;32098;49.448;7.904;2022-08-19T10:11:39;16.13;;;14.57;;
46391;SDS011;32098;49.448;7.904;2022-08-19T10:14:17;15.00;;;13.50;;
46391;SDS011;32098;49.448;7.904;2022-08-19T10:16:48;12.18;;;11.07;;
46391;SDS011;32098;49.448;7.904;2022-08-19T10:19:15;11.02;;;10.07;;
46391;SDS011;32098;49.448;7.904;2022-08-19T10:21:51;9.15;;;8.25;;
46391;SDS011;32098;49.448;7.904;2022-08-19T10:24:19;9.10;;;8.20;;
46391;SDS011;32098;49.448;7.904;2022-08-19T10:26:47;11.05;;;10.05;;
46391;SDS011;32098;49.448;7.904;2022-08-19T10:29:22;8.77;;;7.90;;
46391;SDS011;32098;49.448;7.904;2022-08-19T10:31:58;7.60;;;6.90;;
46391;SDS011;32098;49.448;7.904;2022-08-19T10:34:28;7.55;;;5.82;;
46391;SDS011;32098;49.448;7.904;2022-08-19T10:36:56;5.95;;;5.45;;
46391;SDS011;32098;49.448;7.904;2022-08-19T10:39:27;6.68;;;5.13;;
46391;SDS011;32098;49.448;7.904;2022-08-19T10:41:56;5.00;;;4.55;;
46391;SDS011;32098;49.448;7.904;2022-08-19T10:44:23;5.70;;;5.15;;
46391;SDS011;32098;49.448;7.904;2022-08-19T10:46:57;6.38;;;5.78;;
46391;SDS011;32098;49.448;7.904;2022-08-19T10:49:25;5.20;;;4.80;;
46391;SDS011;32098;49.448;7.904;2022-08-19T10:51:53;5.32;;;4.93;;
46391;SDS011;32098;49.448;7.904;2022-08-19T10:54:46;5.68;;;4.35;;
46391;SDS011;32098;49.448;7.904;2022-08-19T10:57:34;5.05;;;3.85;;
46391;SDS011;32098;49.448;7.904;2022-08-19T11:00:21;4.35;;;3.95;;
46391;SDS011;32098;49.448;7.904;2022-08-19T11:02:49;3.90;;;3.53;;
46391;SDS011;32098;49.448;7.904;2022-08-19T11:05:16;4.88;;;4.38;;
46391;SDS011;32098;49.448;7.904;2022-08-19T11:07:44;5.75;;;5.25;;
46391;SDS011;32098;49.448;7.904;2022-08-19T11:10:12;5.30;;;4.80;;
46391;SDS011;32098;49.448;7.904;2022-08-19T11:12:46;6.85;;;4.75;;
46391;SDS011;32098;49.448;7.904;2022-08-19T11:15:13;5.82;;;4.82;;
46391;SDS011;32098;49.448;7.904;2022-08-19T11:17:39;4.50;;;4.10;;
46391;SDS011;32098;49.448;7.904;2022-08-19T11:20:11;4.15;;;3.83;;
46391;SDS011;32098;49.448;7.904;2022-08-19T11:22:39;4.65;;;4.20;;
46391;SDS011;32098;49.448;7.904;2022-08-19T11:25:08;4.63;;;3.72;;
46391;SDS011;32098;49.448;7.904;2022-08-19T11:27:39;4.20;;;3.80;;
46391;SDS011;32098;49.448;7.904;2022-08-19T11:30:08;6.07;;;3.60;;
46391;SDS011;32098;49.448;7.904;2022-08-19T11:32:39;4.18;;;3.88;;
46391;SDS011;32098;49.448;7.904;2022-08-19T11:35:13;5.63;;;3.53;;
46391;SDS011;32098;49.448;7.904;2022-08-19T11:37:40;5.20;;;3.70;;
46391;SDS011;32098;49.448;7.904;2022-08-19T11:40:07;4.07;;;3.78;;
46391;SDS011;32098;49.448;7.904;2022-08-19T11:42:34;3.83;;;3.53;;
46391;SDS011;32098;49.448;7.904;2022-08-19T11:45:19;4.05;;;3.75;;
46391;SDS011;32098;49.448;7.904;2022-08-19T11:47:46;4.45;;;3.80;;
46391;SDS011;32098;49.448;7.904;2022-08-19T11:50:14;3.92;;;3.63;;
46391;SDS011;32098;49.448;7.904;2022-08-19T11:52:41;4.20;;;3.90;;
46391;SDS011;32098;49.448;7.904;2022-08-19T11:55:08;5.07;;;3.70;;
46391;SDS011;32098;49.448;7.904;2022-08-19T11:57:35;3.60;;;3.30;;
46391;SDS011;32098;49.448;7.904;2022-08-19T12:00:03;3.80;;;3.50;;
46391;SDS011;32098;49.448;7.904;2022-08-19T12:02:31;7.30;;;3.50;;
46391;SDS011;32098;49.448;7.904;2022-08-19T12:04:58;4.28;;;3.28;;
46391;SDS011;32098;49.448;7.904;2022-08-19T12:07:24;3.80;;;3.47;;
46391;SDS011;32098;49.448;7.904;2022-08-19T12:09:51;3.78;;;3.47;;
46391;SDS011;32098;49.448;7.904;2022-08-19T12:12:17;3.90;;;3.58;;
46391;SDS011;32098;49.448;7.904;2022-08-19T12:14:44;3.53;;;3.22;;
46391;SDS011;32098;49.448;7.904;2022-08-19T12:17:12;4.90;;;3.65;;
46391;SDS011;32098;49.448;7.904;2022-08-19T12:19:39;3.55;;;3.30;;
46391;SDS011;32098;49.448;7.904;2022-08-19T12:22:06;4.88;;;3.47;;
46391;SDS011;32098;49.448;7.904;2022-08-19T12:24:33;4.20;;;3.80;;
46391;SDS011;32098;49.448;7.904;2022-08-19T12:27:00;4.43;;;4.00;;
46391;SDS011;32098;49.448;7.904;2022-08-19T12:29:28;4.57;;;4.18;;
46391;SDS011;32098;49.448;7.904;2022-08-19T12:31:57;4.22;;;3.85;;
46391;SDS011;32098;49.448;7.904;2022-08-19T12:34:29;4.22;;;3.80;;
46391;SDS011;32098;49.448;7.904;2022-08-19T12:36:57;4.57;;;4.13;;
46391;SDS011;32098;49.448;7.904;2022-08-19T12:39:25;3.78;;;3.47;;
46391;SDS011;32098;49.448;7.904;2022-08-19T12:41:52;4.25;;;3.85;;
46391;SDS011;32098;49.448;7.904;2022-08-19T12:44:20;6.90;;;3.88;;
46391;SDS011;32098;49.448;7.904;2022-08-19T12:46:57;5.22;;;4.10;;
46391;SDS011;32098;49.448;7.904;2022-08-19T12:49:24;5.20;;;3.97;;
46391;SDS011;32098;49.448;7.904;2022-08-19T12:52:10;4.15;;;3.85;;
46391;SDS011;32098;49.448;7.904;2022-08-19T12:54:42;4.20;;;3.90;;
46391;SDS011;32098;49.448;7.904;2022-08-19T12:57:09;4.68;;;4.25;;
46391;SDS011;32098;49.448;7.904;2022-08-19T12:59:37;4.47;;;4.07;;
46391;SDS011;32098;49.448;7.904;2022-08-19T13:02:05;4.75;;;4.30;;
46391;SDS011;32098;49.448;7.904;2022-08-19T13:04:33;4.60;;;4.20;;
46391;SDS011;32098;49.448;7.904;2022-08-19T13:07:03;4.20;;;3.90;;
46391;SDS011;32098;49.448;7.904;2022-08-19T13:09:29;4.20;;;3.80;;
46391;SDS011;32098;49.448;7.904;2022-08-19T13:11:56;4.07;;;3.70;;
46391;SDS011;32098;49.448;7.904;2022-08-19T13:14:22;4.30;;;3.70;;
46391;SDS011;32098;49.448;7.904;2022-08-19T13:16:52;4.78;;;4.38;;
46391;SDS011;32098;49.448;7.904;2022-08-19T13:19:18;4.65;;;3.72;;
46391;SDS011;32098;49.448;7.904;2022-08-19T13:21:49;4.30;;;3.90;;
46391;SDS011;32098;49.448;7.904;2022-08-19T13:24:25;3.95;;;3.65;;
46391;SDS011;32098;49.448;7.904;2022-08-19T13:26:59;3.72;;;3.42;;
46391;SDS011;32098;49.448;7.904;2022-08-19T13:29:26;4.20;;;3.80;;
46391;SDS011;32098;49.448;7.904;2022-08-19T13:32:11;4.40;;;4.00;;
46391;SDS011;32098;49.448;7.904;2022-08-19T13:34:56;5.85;;;4.00;;
46391;SDS011;32098;49.448;7.904;2022-08-19T13:37:23;4.53;;;4.07;;
46391;SDS011;32098;49.448;7.904;2022-08-19T13:40:17;4.93;;;4.32;;
46391;SDS011;32098;49.448;7.904;2022-08-19T13:42:48;4.70;;;4.30;;
46391;SDS011;32098;49.448;7.904;2022-08-19T13:45:18;4.70;;;4.30;;
46391;SDS011;32098;49.448;7.904;2022-08-19T13:47:47;4.35;;;4.05;;
46391;SDS011;32098;49.448;7.904;2022-08-19T13:50:19;4.75;;;4.28;;
46391;SDS011;32098;49.448;7.904;2022-08-19T13:52:48;6.43;;;4.47;;
46391;SDS011;32098;49.448;7.904;2022-08-19T13:55:14;4.47;;;4.18;;
46391;SDS011;32098;49.448;7.904;2022-08-19T13:57:53;4.53;;;4.13;;
46391;SDS011;32098;49.448;7.904;2022-08-19T14:00:22;4.68;;;4.35;;
46391;SDS011;32098;49.448;7.904;2022-08-19T14:02:54;5.30;;;4.25;;
46391;SDS011;32098;49.448;7.904;2022-08-19T14:05:22;4.40;;;4.10;;
46391;SDS011;32098;49.448;7.904;2022-08-19T14:07:50;6.30;;;4.60;;
46391;SDS011;32098;49.448;7.904;2022-08-19T14:10:18;4.57;;;4.18;;
46391;SDS011;32098;49.448;7.904;2022-08-19T14:12:45;4.60;;;4.20;;
46391;SDS011;32098;49.448;7.904;2022-08-19T14:15:13;4.70;;;4.30;;
46391;SDS011;32098;49.448;7.904;2022-08-19T14:17:41;5.03;;;4.50;;
46391;SDS011;32098;49.448;7.904;2022-08-19T14:20:10;4.60;;;4.20;;
46391;SDS011;32098;49.448;7.904;2022-08-19T14:22:44;6.53;;;4.10;;
46391;SDS011;32098;49.448;7.904;2022-08-19T14:25:14;5.25;;;4.03;;
46391;SDS011;32098;49.448;7.904;2022-08-19T14:27:42;3.92;;;3.63;;
46391;SDS011;32098;49.448;7.904;2022-08-19T14:30:11;3.97;;;3.67;;
46391;SDS011;32098;49.448;7.904;2022-08-19T14:32:40;5.30;;;3.92;;
46391;SDS011;32098;49.448;7.904;2022-08-19T14:35:09;3.97;;;3.67;;
46391;SDS011;32098;49.448;7.904;2022-08-19T14:37:38;5.07;;;4.10;;
46391;SDS011;32098;49.448;7.904;2022-08-19T14:40:12;3.92;;;3.63;;
46391;SDS011;32098;49.448;7.904;2022-08-19T14:42:40;4.53;;;4.13;;
46391;SDS011;32098;49.448;7.904;2022-08-19T14:45:08;4.18;;;3.83;;
46391;SDS011;32098;49.448;7.904;2022-08-19T14:47:36;4.53;;;4.13;;
46391;SDS011;32098;49.448;7.904;2022-08-19T14:50:07;4.20;;;3.90;;
46391;SDS011;32098;49.448;7.904;2022-08-19T14:52:43;5.10;;;3.95;;
46391;SDS011;32098;49.448;7.904;2022-08-19T14:55:09;4.65;;;4.25;;
46391;SDS011;32098;49.448;7.904;2022-08-19T14:57:36;4.30;;;3.90;;
46391;SDS011;32098;49.448;7.904;2022-08-19T15:00:03;5.13;;;4.10;;
46391;SDS011;32098;49.448;7.904;2022-08-19T15:02:30;4.75;;;4.35;;